sensor_id;sensor_type;location;lat;lon;timestamp;P1;durP1;ratioP1;P2;durP2;ratioP2
23517;SDS011;11935;50.878;4.392;2022-08-11T00:00:39;10.48;;;2.08;;
23517;SDS011;11935;50.878;4.392;2022-08-11T00:03:12;9.05;;;2.10;;
23517;SDS011;11935;50.878;4.392;2022-08-11T00:05:45;3.78;;;1.95;;
23517;SDS011;11935;50.878;4.392;2022-08-11T00:08:19;5.50;;;1.95;;
23517;SDS011;11935;50.878;4.392;2022-08-11T00:10:50;2.92;;;1.77;;
23517;SDS011;11935;50.878;4.392;2022-08-11T00:13:16;4.85;;;2.15;;
23517;SDS011;11935;50.878;4.392;2022-08-11T00:15:43;5.78;;;2.22;;
23517;SDS011;11935;50.878;4.392;2022-08-11T00:18:11;6.72;;;2.30;;
23517;SDS011;11935;50.878;4.392;2022-08-11T00:20:39;6.10;;;2.10;;
23517;SDS011;11935;50.878;4.392;2022-08-11T00:23:07;4.18;;;2.10;;
23517;SDS011;11935;50.878;4.392;2022-08-11T00:25:44;2.55;;;1.73;;
23517;SDS011;11935;50.878;4.392;2022-08-11T00:28:23;3.88;;;2.10;;
23517;SDS011;11935;50.878;4.392;2022-08-11T00:30:50;7.28;;;2.00;;
23517;SDS011;11935;50.878;4.392;2022-08-11T00:33:16;2.55;;;1.70;;
23517;SDS011;11935;50.878;4.392;2022-08-11T00:35:43;5.88;;;2.20;;
23517;SDS011;11935;50.878;4.392;2022-08-11T00:38:10;4.20;;;1.70;;
23517;SDS011;11935;50.878;4.392;2022-08-11T00:40:38;5.15;;;2.00;;
23517;SDS011;11935;50.878;4.392;2022-08-11T00:45:40;4.90;;;1.70;;
23517;SDS011;11935;50.878;4.392;2022-08-11T00:50:51;3.67;;;2.08;;
23517;SDS011;11935;50.878;4.392;2022-08-11T01:01:47;3.35;;;2.40;;
23517;SDS011;11935;50.878;4.392;2022-08-11T01:43:59;4.22;;;2.05;;
23517;SDS011;11935;50.878;4.392;2022-08-11T01:46:55;3.50;;;2.08;;
23517;SDS011;11935;50.878;4.392;2022-08-11T01:49:43;9.07;;;2.30;;
23517;SDS011;11935;50.878;4.392;2022-08-11T01:52:25;4.68;;;1.92;;
23517;SDS011;11935;50.878;4.392;2022-08-11T02:00:19;5.35;;;2.20;;
23517;SDS011;11935;50.878;4.392;2022-08-11T02:13:04;2.65;;;2.10;;
23517;SDS011;11935;50.878;4.392;2022-08-11T02:15:44;4.60;;;2.10;;
23517;SDS011;11935;50.878;4.392;2022-08-11T02:18:25;5.88;;;3.90;;
23517;SDS011;11935;50.878;4.392;2022-08-11T02:21:14;5.75;;;2.70;;
23517;SDS011;11935;50.878;4.392;2022-08-11T02:24:02;4.20;;;2.00;;
23517;SDS011;11935;50.878;4.392;2022-08-11T02:31:39;5.88;;;2.13;;
23517;SDS011;11935;50.878;4.392;2022-08-11T02:48:30;6.90;;;2.08;;
23517;SDS011;11935;50.878;4.392;2022-08-11T02:51:23;2.97;;;2.03;;
23517;SDS011;11935;50.878;4.392;2022-08-11T02:59:05;5.05;;;2.13;;
23517;SDS011;11935;50.878;4.392;2022-08-11T03:04:19;5.40;;;2.60;;
23517;SDS011;11935;50.878;4.392;2022-08-11T03:06:49;5.22;;;2.60;;
23517;SDS011;11935;50.878;4.392;2022-08-11T03:11:44;5.30;;;2.33;;
23517;SDS011;11935;50.878;4.392;2022-08-11T03:14:42;4.85;;;2.70;;
23517;SDS011;11935;50.878;4.392;2022-08-11T03:38:33;4.07;;;2.55;;
23517;SDS011;11935;50.878;4.392;2022-08-11T03:41:18;4.20;;;2.47;;
23517;SDS011;11935;50.878;4.392;2022-08-11T03:49:26;6.93;;;2.83;;
23517;SDS011;11935;50.878;4.392;2022-08-11T03:52:01;3.22;;;2.40;;
23517;SDS011;11935;50.878;4.392;2022-08-11T03:59:42;8.75;;;3.13;;
23517;SDS011;11935;50.878;4.392;2022-08-11T04:07:23;5.85;;;2.72;;
23517;SDS011;11935;50.878;4.392;2022-08-11T04:10:03;7.65;;;2.70;;
23517;SDS011;11935;50.878;4.392;2022-08-11T04:15:12;6.38;;;2.90;;
23517;SDS011;11935;50.878;4.392;2022-08-11T04:25:42;6.20;;;2.90;;
23517;SDS011;11935;50.878;4.392;2022-08-11T04:33:51;12.55;;;4.82;;
23517;SDS011;11935;50.878;4.392;2022-08-11T04:36:32;13.93;;;3.80;;
23517;SDS011;11935;50.878;4.392;2022-08-11T04:39:27;13.98;;;4.22;;
23517;SDS011;11935;50.878;4.392;2022-08-11T04:42:27;13.13;;;3.70;;
23517;SDS011;11935;50.878;4.392;2022-08-11T04:45:34;12.40;;;3.45;;
23517;SDS011;11935;50.878;4.392;2022-08-11T04:48:23;21.75;;;3.90;;
23517;SDS011;11935;50.878;4.392;2022-08-11T04:54:25;15.82;;;4.03;;
23517;SDS011;11935;50.878;4.392;2022-08-11T04:57:30;11.55;;;3.63;;
23517;SDS011;11935;50.878;4.392;2022-08-11T05:00:18;15.70;;;3.75;;
23517;SDS011;11935;50.878;4.392;2022-08-11T05:13:31;15.38;;;4.00;;
23517;SDS011;11935;50.878;4.392;2022-08-11T05:16:17;12.40;;;4.07;;
23517;SDS011;11935;50.878;4.392;2022-08-11T05:19:02;12.85;;;3.58;;
23517;SDS011;11935;50.878;4.392;2022-08-11T05:21:54;16.75;;;4.57;;
23517;SDS011;11935;50.878;4.392;2022-08-11T05:24:44;9.57;;;3.70;;
23517;SDS011;11935;50.878;4.392;2022-08-11T05:27:31;9.55;;;4.00;;
23517;SDS011;11935;50.878;4.392;2022-08-11T05:30:16;8.67;;;4.13;;
23517;SDS011;11935;50.878;4.392;2022-08-11T05:33:05;13.13;;;4.30;;
23517;SDS011;11935;50.878;4.392;2022-08-11T05:36:04;11.65;;;4.05;;
23517;SDS011;11935;50.878;4.392;2022-08-11T05:38:34;11.25;;;4.38;;
23517;SDS011;11935;50.878;4.392;2022-08-11T05:41:23;10.57;;;4.70;;
23517;SDS011;11935;50.878;4.392;2022-08-11T05:44:09;12.50;;;4.32;;
23517;SDS011;11935;50.878;4.392;2022-08-11T05:46:54;11.00;;;4.70;;
23517;SDS011;11935;50.878;4.392;2022-08-11T05:49:39;9.45;;;4.32;;
23517;SDS011;11935;50.878;4.392;2022-08-11T05:52:28;8.05;;;4.07;;
23517;SDS011;11935;50.878;4.392;2022-08-11T05:55:14;6.68;;;4.38;;
23517;SDS011;11935;50.878;4.392;2022-08-11T05:58:03;24.33;;;7.60;;
23517;SDS011;11935;50.878;4.392;2022-08-11T06:00:37;6.97;;;4.13;;
23517;SDS011;11935;50.878;4.392;2022-08-11T06:03:05;13.05;;;4.10;;
23517;SDS011;11935;50.878;4.392;2022-08-11T06:05:38;11.45;;;4.53;;
23517;SDS011;11935;50.878;4.392;2022-08-11T06:08:07;9.50;;;5.10;;
23517;SDS011;11935;50.878;4.392;2022-08-11T06:10:38;6.90;;;4.20;;
23517;SDS011;11935;50.878;4.392;2022-08-11T06:13:05;15.32;;;4.60;;
23517;SDS011;11935;50.878;4.392;2022-08-11T06:15:32;9.00;;;4.57;;
23517;SDS011;11935;50.878;4.392;2022-08-11T06:18:01;6.90;;;4.32;;
23517;SDS011;11935;50.878;4.392;2022-08-11T06:20:28;8.35;;;4.13;;
23517;SDS011;11935;50.878;4.392;2022-08-11T06:23:02;8.98;;;4.32;;
23517;SDS011;11935;50.878;4.392;2022-08-11T06:25:29;8.05;;;3.75;;
23517;SDS011;11935;50.878;4.392;2022-08-11T06:27:56;5.15;;;3.90;;
23517;SDS011;11935;50.878;4.392;2022-08-11T06:30:33;9.13;;;3.90;;
23517;SDS011;11935;50.878;4.392;2022-08-11T06:33:00;9.60;;;3.72;;
23517;SDS011;11935;50.878;4.392;2022-08-11T06:35:43;6.18;;;3.60;;
23517;SDS011;11935;50.878;4.392;2022-08-11T06:43:17;8.93;;;3.65;;
23517;SDS011;11935;50.878;4.392;2022-08-11T06:45:58;5.13;;;3.42;;
23517;SDS011;11935;50.878;4.392;2022-08-11T06:48:27;8.88;;;3.60;;
23517;SDS011;11935;50.878;4.392;2022-08-11T06:50:56;13.75;;;4.00;;
23517;SDS011;11935;50.878;4.392;2022-08-11T06:53:43;5.75;;;3.15;;
23517;SDS011;11935;50.878;4.392;2022-08-11T06:56:10;11.95;;;3.58;;
23517;SDS011;11935;50.878;4.392;2022-08-11T06:58:56;7.72;;;3.20;;
23517;SDS011;11935;50.878;4.392;2022-08-11T07:04:39;9.98;;;3.08;;
23517;SDS011;11935;50.878;4.392;2022-08-11T07:07:08;8.70;;;3.47;;
23517;SDS011;11935;50.878;4.392;2022-08-11T07:13:18;5.72;;;3.30;;
23517;SDS011;11935;50.878;4.392;2022-08-11T07:16:04;10.73;;;3.42;;
23517;SDS011;11935;50.878;4.392;2022-08-11T07:18:32;11.48;;;3.33;;
23517;SDS011;11935;50.878;4.392;2022-08-11T07:21:26;9.98;;;2.90;;
23517;SDS011;11935;50.878;4.392;2022-08-11T07:24:18;9.32;;;3.10;;
23517;SDS011;11935;50.878;4.392;2022-08-11T07:27:05;7.85;;;2.63;;
23517;SDS011;11935;50.878;4.392;2022-08-11T07:29:51;12.38;;;3.25;;
23517;SDS011;11935;50.878;4.392;2022-08-11T07:32:21;9.00;;;3.00;;
23517;SDS011;11935;50.878;4.392;2022-08-11T07:34:49;11.10;;;3.22;;
23517;SDS011;11935;50.878;4.392;2022-08-11T07:37:17;7.07;;;3.22;;
23517;SDS011;11935;50.878;4.392;2022-08-11T07:39:45;7.68;;;3.03;;
23517;SDS011;11935;50.878;4.392;2022-08-11T07:42:12;5.25;;;2.80;;
23517;SDS011;11935;50.878;4.392;2022-08-11T07:47:24;6.38;;;2.65;;
23517;SDS011;11935;50.878;4.392;2022-08-11T07:50:09;7.88;;;2.83;;
23517;SDS011;11935;50.878;4.392;2022-08-11T07:52:55;6.63;;;2.80;;
23517;SDS011;11935;50.878;4.392;2022-08-11T07:55:21;12.20;;;2.83;;
23517;SDS011;11935;50.878;4.392;2022-08-11T07:57:52;8.32;;;2.67;;
23517;SDS011;11935;50.878;4.392;2022-08-11T08:00:38;8.90;;;2.72;;
23517;SDS011;11935;50.878;4.392;2022-08-11T08:03:23;12.80;;;2.75;;
23517;SDS011;11935;50.878;4.392;2022-08-11T08:06:09;6.22;;;2.53;;
23517;SDS011;11935;50.878;4.392;2022-08-11T08:08:54;7.00;;;3.05;;
23517;SDS011;11935;50.878;4.392;2022-08-11T08:11:39;13.05;;;2.75;;
23517;SDS011;11935;50.878;4.392;2022-08-11T08:14:24;9.60;;;2.75;;
23517;SDS011;11935;50.878;4.392;2022-08-11T08:17:09;8.35;;;2.35;;
23517;SDS011;11935;50.878;4.392;2022-08-11T08:19:54;8.40;;;2.72;;
23517;SDS011;11935;50.878;4.392;2022-08-11T08:22:20;8.27;;;2.60;;
23517;SDS011;11935;50.878;4.392;2022-08-11T08:24:47;13.13;;;2.85;;
23517;SDS011;11935;50.878;4.392;2022-08-11T08:27:13;6.68;;;2.72;;
23517;SDS011;11935;50.878;4.392;2022-08-11T08:29:40;9.85;;;2.65;;
23517;SDS011;11935;50.878;4.392;2022-08-11T08:32:26;8.10;;;2.30;;
23517;SDS011;11935;50.878;4.392;2022-08-11T08:34:53;5.97;;;2.33;;
23517;SDS011;11935;50.878;4.392;2022-08-11T08:37:23;5.60;;;2.10;;
23517;SDS011;11935;50.878;4.392;2022-08-11T08:39:51;8.02;;;2.25;;
23517;SDS011;11935;50.878;4.392;2022-08-11T08:42:17;5.57;;;2.08;;
23517;SDS011;11935;50.878;4.392;2022-08-11T08:44:45;11.18;;;2.55;;
23517;SDS011;11935;50.878;4.392;2022-08-11T08:47:13;9.63;;;2.42;;
23517;SDS011;11935;50.878;4.392;2022-08-11T08:49:40;4.30;;;2.10;;
23517;SDS011;11935;50.878;4.392;2022-08-11T08:52:13;9.75;;;2.75;;
23517;SDS011;11935;50.878;4.392;2022-08-11T08:54:41;8.50;;;2.55;;
23517;SDS011;11935;50.878;4.392;2022-08-11T08:57:08;6.47;;;2.35;;
23517;SDS011;11935;50.878;4.392;2022-08-11T08:59:40;8.32;;;2.60;;
23517;SDS011;11935;50.878;4.392;2022-08-11T09:04:33;7.00;;;2.90;;
23517;SDS011;11935;50.878;4.392;2022-08-11T09:07:13;6.38;;;2.38;;
23517;SDS011;11935;50.878;4.392;2022-08-11T09:09:41;7.32;;;2.30;;
23517;SDS011;11935;50.878;4.392;2022-08-11T09:12:08;11.90;;;2.60;;
23517;SDS011;11935;50.878;4.392;2022-08-11T09:14:35;7.53;;;2.40;;
23517;SDS011;11935;50.878;4.392;2022-08-11T09:17:22;5.88;;;2.13;;
23517;SDS011;11935;50.878;4.392;2022-08-11T09:19:50;7.78;;;2.50;;
23517;SDS011;11935;50.878;4.392;2022-08-11T09:22:22;10.25;;;2.83;;
23517;SDS011;11935;50.878;4.392;2022-08-11T09:25:07;5.55;;;2.28;;
23517;SDS011;11935;50.878;4.392;2022-08-11T09:27:52;6.20;;;2.30;;
23517;SDS011;11935;50.878;4.392;2022-08-11T09:32:46;7.10;;;2.50;;
23517;SDS011;11935;50.878;4.392;2022-08-11T09:35:12;4.90;;;2.03;;
23517;SDS011;11935;50.878;4.392;2022-08-11T09:37:41;5.28;;;1.98;;
23517;SDS011;11935;50.878;4.392;2022-08-11T09:40:26;7.30;;;2.25;;
23517;SDS011;11935;50.878;4.392;2022-08-11T09:42:59;6.78;;;2.55;;
23517;SDS011;11935;50.878;4.392;2022-08-11T09:45:48;6.60;;;2.00;;
23517;SDS011;11935;50.878;4.392;2022-08-11T09:48:15;8.75;;;2.30;;
23517;SDS011;11935;50.878;4.392;2022-08-11T09:50:43;4.38;;;2.28;;
23517;SDS011;11935;50.878;4.392;2022-08-11T09:53:12;5.18;;;2.85;;
23517;SDS011;11935;50.878;4.392;2022-08-11T09:55:40;7.82;;;2.20;;
23517;SDS011;11935;50.878;4.392;2022-08-11T09:58:06;3.58;;;2.00;;
23517;SDS011;11935;50.878;4.392;2022-08-11T10:00:38;6.65;;;2.15;;
23517;SDS011;11935;50.878;4.392;2022-08-11T10:03:21;6.00;;;2.80;;
23517;SDS011;11935;50.878;4.392;2022-08-11T10:05:48;3.15;;;2.05;;
23517;SDS011;11935;50.878;4.392;2022-08-11T10:08:33;8.32;;;2.38;;
23517;SDS011;11935;50.878;4.392;2022-08-11T10:11:00;10.00;;;2.90;;
23517;SDS011;11935;50.878;4.392;2022-08-11T10:13:30;9.50;;;2.65;;
23517;SDS011;11935;50.878;4.392;2022-08-11T10:16:02;11.70;;;2.40;;
23517;SDS011;11935;50.878;4.392;2022-08-11T10:18:40;6.32;;;2.20;;
23517;SDS011;11935;50.878;4.392;2022-08-11T10:21:11;5.80;;;1.90;;
23517;SDS011;11935;50.878;4.392;2022-08-11T10:23:38;5.60;;;2.10;;
23517;SDS011;11935;50.878;4.392;2022-08-11T10:26:25;4.93;;;2.42;;
23517;SDS011;11935;50.878;4.392;2022-08-11T10:29:11;3.63;;;2.17;;
23517;SDS011;11935;50.878;4.392;2022-08-11T10:31:56;7.93;;;2.42;;
23517;SDS011;11935;50.878;4.392;2022-08-11T10:34:45;9.65;;;2.53;;
23517;SDS011;11935;50.878;4.392;2022-08-11T10:37:12;7.97;;;2.05;;
23517;SDS011;11935;50.878;4.392;2022-08-11T10:39:38;6.57;;;2.50;;
23517;SDS011;11935;50.878;4.392;2022-08-11T10:42:05;4.95;;;2.03;;
23517;SDS011;11935;50.878;4.392;2022-08-11T10:44:51;9.25;;;2.00;;
23517;SDS011;11935;50.878;4.392;2022-08-11T10:47:17;5.30;;;2.00;;
23517;SDS011;11935;50.878;4.392;2022-08-11T10:50:00;7.38;;;3.33;;
23517;SDS011;11935;50.878;4.392;2022-08-11T10:52:46;7.50;;;2.10;;
23517;SDS011;11935;50.878;4.392;2022-08-11T10:55:31;3.83;;;2.63;;
23517;SDS011;11935;50.878;4.392;2022-08-11T10:58:16;7.72;;;2.28;;
23517;SDS011;11935;50.878;4.392;2022-08-11T11:01:01;2.92;;;2.08;;
23517;SDS011;11935;50.878;4.392;2022-08-11T11:03:28;7.05;;;2.67;;
23517;SDS011;11935;50.878;4.392;2022-08-11T11:06:08;11.07;;;2.30;;
23517;SDS011;11935;50.878;4.392;2022-08-11T11:08:41;5.85;;;2.50;;
23517;SDS011;11935;50.878;4.392;2022-08-11T11:11:29;6.47;;;2.00;;
23517;SDS011;11935;50.878;4.392;2022-08-11T11:14:17;10.48;;;2.03;;
23517;SDS011;11935;50.878;4.392;2022-08-11T11:19:38;5.10;;;2.08;;
23517;SDS011;11935;50.878;4.392;2022-08-11T11:22:05;6.05;;;2.05;;
23517;SDS011;11935;50.878;4.392;2022-08-11T11:25:03;8.75;;;2.13;;
23517;SDS011;11935;50.878;4.392;2022-08-11T11:30:18;4.68;;;1.88;;
23517;SDS011;11935;50.878;4.392;2022-08-11T11:33:32;3.55;;;2.15;;
23517;SDS011;11935;50.878;4.392;2022-08-11T11:38:43;5.65;;;2.03;;
23517;SDS011;11935;50.878;4.392;2022-08-11T11:41:09;5.28;;;2.28;;
23517;SDS011;11935;50.878;4.392;2022-08-11T11:43:54;4.30;;;1.98;;
23517;SDS011;11935;50.878;4.392;2022-08-11T11:46:25;6.63;;;2.13;;
23517;SDS011;11935;50.878;4.392;2022-08-11T11:48:55;3.25;;;1.90;;
23517;SDS011;11935;50.878;4.392;2022-08-11T11:51:22;4.70;;;1.80;;
23517;SDS011;11935;50.878;4.392;2022-08-11T11:53:49;4.45;;;1.92;;
23517;SDS011;11935;50.878;4.392;2022-08-11T11:56:16;4.93;;;2.03;;
23517;SDS011;11935;50.878;4.392;2022-08-11T11:58:43;5.63;;;2.60;;
23517;SDS011;11935;50.878;4.392;2022-08-11T12:01:29;5.70;;;1.70;;
23517;SDS011;11935;50.878;4.392;2022-08-11T12:03:58;4.20;;;2.20;;
23517;SDS011;11935;50.878;4.392;2022-08-11T12:06:24;9.10;;;1.95;;
23517;SDS011;11935;50.878;4.392;2022-08-11T12:08:52;6.13;;;1.60;;
23517;SDS011;11935;50.878;4.392;2022-08-11T12:11:20;5.45;;;1.80;;
23517;SDS011;11935;50.878;4.392;2022-08-11T12:14:06;4.88;;;1.75;;
23517;SDS011;11935;50.878;4.392;2022-08-11T12:16:33;6.38;;;1.83;;
23517;SDS011;11935;50.878;4.392;2022-08-11T12:19:00;4.65;;;1.80;;
23517;SDS011;11935;50.878;4.392;2022-08-11T12:23:54;3.88;;;1.70;;
23517;SDS011;11935;50.878;4.392;2022-08-11T12:29:24;3.93;;;1.40;;
23517;SDS011;11935;50.878;4.392;2022-08-11T12:31:53;5.68;;;1.70;;
23517;SDS011;11935;50.878;4.392;2022-08-11T12:34:20;2.55;;;1.65;;
23517;SDS011;11935;50.878;4.392;2022-08-11T12:36:58;6.43;;;1.40;;
23517;SDS011;11935;50.878;4.392;2022-08-11T12:39:30;5.40;;;1.30;;
23517;SDS011;11935;50.878;4.392;2022-08-11T12:42:17;2.88;;;1.35;;
23517;SDS011;11935;50.878;4.392;2022-08-11T12:45:03;6.32;;;1.52;;
23517;SDS011;11935;50.878;4.392;2022-08-11T12:47:52;3.33;;;1.70;;
23517;SDS011;11935;50.878;4.392;2022-08-11T12:50:37;6.88;;;1.60;;
23517;SDS011;11935;50.878;4.392;2022-08-11T12:53:29;3.40;;;1.30;;
23517;SDS011;11935;50.878;4.392;2022-08-11T12:55:59;3.00;;;1.30;;
23517;SDS011;11935;50.878;4.392;2022-08-11T12:58:46;3.92;;;1.35;;
23517;SDS011;11935;50.878;4.392;2022-08-11T13:01:13;3.00;;;1.38;;
23517;SDS011;11935;50.878;4.392;2022-08-11T13:03:58;3.15;;;1.50;;
23517;SDS011;11935;50.878;4.392;2022-08-11T13:06:43;3.92;;;1.58;;
23517;SDS011;11935;50.878;4.392;2022-08-11T13:09:10;4.65;;;1.42;;
23517;SDS011;11935;50.878;4.392;2022-08-11T13:11:37;2.85;;;1.30;;
23517;SDS011;11935;50.878;4.392;2022-08-11T13:14:23;4.38;;;1.60;;
23517;SDS011;11935;50.878;4.392;2022-08-11T13:16:50;1.10;;;1.00;;
23517;SDS011;11935;50.878;4.392;2022-08-11T13:19:35;4.47;;;1.40;;
23517;SDS011;11935;50.878;4.392;2022-08-11T13:22:01;3.58;;;1.40;;
23517;SDS011;11935;50.878;4.392;2022-08-11T13:24:29;3.65;;;1.38;;
23517;SDS011;11935;50.878;4.392;2022-08-11T13:26:58;3.88;;;1.38;;
23517;SDS011;11935;50.878;4.392;2022-08-11T13:29:25;3.45;;;1.42;;
23517;SDS011;11935;50.878;4.392;2022-08-11T13:31:53;4.65;;;1.58;;
23517;SDS011;11935;50.878;4.392;2022-08-11T13:34:23;5.40;;;1.42;;
23517;SDS011;11935;50.878;4.392;2022-08-11T13:36:51;5.53;;;1.15;;
23517;SDS011;11935;50.878;4.392;2022-08-11T13:39:22;5.40;;;1.20;;
23517;SDS011;11935;50.878;4.392;2022-08-11T13:41:49;4.07;;;1.25;;
23517;SDS011;11935;50.878;4.392;2022-08-11T13:44:16;5.03;;;1.58;;
23517;SDS011;11935;50.878;4.392;2022-08-11T13:46:42;3.00;;;1.15;;
23517;SDS011;11935;50.878;4.392;2022-08-11T13:49:08;7.95;;;1.48;;
23517;SDS011;11935;50.878;4.392;2022-08-11T13:51:36;3.67;;;1.30;;
23517;SDS011;11935;50.878;4.392;2022-08-11T13:54:07;4.07;;;1.33;;
23517;SDS011;11935;50.878;4.392;2022-08-11T13:56:34;3.88;;;1.33;;
23517;SDS011;11935;50.878;4.392;2022-08-11T13:59:04;4.38;;;1.50;;
23517;SDS011;11935;50.878;4.392;2022-08-11T14:01:32;5.28;;;1.70;;
23517;SDS011;11935;50.878;4.392;2022-08-11T14:04:08;6.75;;;1.50;;
23517;SDS011;11935;50.878;4.392;2022-08-11T14:06:35;2.70;;;1.35;;
23517;SDS011;11935;50.878;4.392;2022-08-11T14:09:03;2.78;;;1.38;;
23517;SDS011;11935;50.878;4.392;2022-08-11T14:11:33;3.00;;;1.63;;
23517;SDS011;11935;50.878;4.392;2022-08-11T14:14:20;9.95;;;2.95;;
23517;SDS011;11935;50.878;4.392;2022-08-11T14:16:47;7.38;;;1.90;;
23517;SDS011;11935;50.878;4.392;2022-08-11T14:19:13;3.92;;;1.70;;
23517;SDS011;11935;50.878;4.392;2022-08-11T14:21:42;9.23;;;1.95;;
23517;SDS011;11935;50.878;4.392;2022-08-11T14:24:28;6.13;;;1.50;;
23517;SDS011;11935;50.878;4.392;2022-08-11T14:29:22;3.22;;;1.58;;
23517;SDS011;11935;50.878;4.392;2022-08-11T14:31:56;7.90;;;3.55;;
23517;SDS011;11935;50.878;4.392;2022-08-11T14:34:25;5.40;;;1.30;;
23517;SDS011;11935;50.878;4.392;2022-08-11T14:36:55;6.80;;;1.67;;
23517;SDS011;11935;50.878;4.392;2022-08-11T14:39:22;5.82;;;1.55;;
23517;SDS011;11935;50.878;4.392;2022-08-11T14:41:52;6.70;;;1.88;;
23517;SDS011;11935;50.878;4.392;2022-08-11T14:44:38;7.10;;;1.83;;
23517;SDS011;11935;50.878;4.392;2022-08-11T14:47:23;2.72;;;1.60;;
23517;SDS011;11935;50.878;4.392;2022-08-11T14:49:49;5.38;;;1.88;;
23517;SDS011;11935;50.878;4.392;2022-08-11T14:52:18;7.00;;;1.70;;
23517;SDS011;11935;50.878;4.392;2022-08-11T14:57:30;4.63;;;1.73;;
23517;SDS011;11935;50.878;4.392;2022-08-11T14:59:57;3.38;;;1.58;;
23517;SDS011;11935;50.878;4.392;2022-08-11T15:02:24;2.22;;;1.60;;
23517;SDS011;11935;50.878;4.392;2022-08-11T15:05:09;11.25;;;2.22;;
23517;SDS011;11935;50.878;4.392;2022-08-11T15:07:35;7.32;;;1.83;;
23517;SDS011;11935;50.878;4.392;2022-08-11T15:10:06;4.50;;;2.20;;
23517;SDS011;11935;50.878;4.392;2022-08-11T15:12:33;3.33;;;2.03;;
23517;SDS011;11935;50.878;4.392;2022-08-11T15:15:00;5.75;;;2.10;;
23517;SDS011;11935;50.878;4.392;2022-08-11T15:17:45;3.08;;;1.85;;
23517;SDS011;11935;50.878;4.392;2022-08-11T15:20:16;6.20;;;1.95;;
23517;SDS011;11935;50.878;4.392;2022-08-11T15:23:01;4.90;;;2.20;;
23517;SDS011;11935;50.878;4.392;2022-08-11T15:26:01;7.95;;;2.70;;
23517;SDS011;11935;50.878;4.392;2022-08-11T15:28:28;7.22;;;3.10;;
23517;SDS011;11935;50.878;4.392;2022-08-11T15:31:14;8.13;;;2.10;;
23517;SDS011;11935;50.878;4.392;2022-08-11T15:34:03;5.30;;;2.20;;
23517;SDS011;11935;50.878;4.392;2022-08-11T15:36:48;3.67;;;1.90;;
23517;SDS011;11935;50.878;4.392;2022-08-11T15:39:35;5.15;;;2.35;;
23517;SDS011;11935;50.878;4.392;2022-08-11T15:42:29;4.43;;;2.20;;
23517;SDS011;11935;50.878;4.392;2022-08-11T15:45:16;3.70;;;2.40;;
23517;SDS011;11935;50.878;4.392;2022-08-11T15:48:09;5.40;;;2.45;;
23517;SDS011;11935;50.878;4.392;2022-08-11T15:50:41;5.82;;;2.40;;
23517;SDS011;11935;50.878;4.392;2022-08-11T15:53:11;6.68;;;2.20;;
23517;SDS011;11935;50.878;4.392;2022-08-11T15:55:42;6.25;;;2.20;;
23517;SDS011;11935;50.878;4.392;2022-08-11T15:58:10;4.40;;;2.17;;
23517;SDS011;11935;50.878;4.392;2022-08-11T16:00:55;6.40;;;2.10;;
23517;SDS011;11935;50.878;4.392;2022-08-11T16:03:46;2.65;;;2.10;;
23517;SDS011;11935;50.878;4.392;2022-08-11T16:06:32;6.43;;;2.08;;
23517;SDS011;11935;50.878;4.392;2022-08-11T16:09:00;5.53;;;2.10;;
23517;SDS011;11935;50.878;4.392;2022-08-11T16:11:29;5.10;;;2.20;;
23517;SDS011;11935;50.878;4.392;2022-08-11T16:13:56;3.08;;;1.70;;
23517;SDS011;11935;50.878;4.392;2022-08-11T16:16:42;8.32;;;2.28;;
23517;SDS011;11935;50.878;4.392;2022-08-11T16:19:09;6.18;;;2.33;;
23517;SDS011;11935;50.878;4.392;2022-08-11T16:21:37;4.60;;;1.95;;
23517;SDS011;11935;50.878;4.392;2022-08-11T16:24:11;5.90;;;2.13;;
23517;SDS011;11935;50.878;4.392;2022-08-11T16:26:40;7.90;;;2.28;;
23517;SDS011;11935;50.878;4.392;2022-08-11T16:29:06;4.25;;;1.90;;
23517;SDS011;11935;50.878;4.392;2022-08-11T16:31:33;8.05;;;2.47;;
23517;SDS011;11935;50.878;4.392;2022-08-11T16:34:00;3.95;;;1.70;;
23517;SDS011;11935;50.878;4.392;2022-08-11T16:36:27;6.53;;;2.22;;
23517;SDS011;11935;50.878;4.392;2022-08-11T16:39:13;10.05;;;2.22;;
23517;SDS011;11935;50.878;4.392;2022-08-11T16:41:42;6.13;;;2.10;;
23517;SDS011;11935;50.878;4.392;2022-08-11T16:44:27;3.75;;;2.22;;
23517;SDS011;11935;50.878;4.392;2022-08-11T16:47:17;3.90;;;1.98;;
23517;SDS011;11935;50.878;4.392;2022-08-11T16:49:49;2.90;;;1.77;;
23517;SDS011;11935;50.878;4.392;2022-08-11T16:52:16;3.88;;;2.03;;
23517;SDS011;11935;50.878;4.392;2022-08-11T16:54:47;3.03;;;1.67;;
23517;SDS011;11935;50.878;4.392;2022-08-11T17:00:00;5.57;;;2.10;;
23517;SDS011;11935;50.878;4.392;2022-08-11T17:02:30;3.13;;;1.70;;
23517;SDS011;11935;50.878;4.392;2022-08-11T17:05:16;7.25;;;2.10;;
23517;SDS011;11935;50.878;4.392;2022-08-11T17:08:02;4.95;;;1.83;;
23517;SDS011;11935;50.878;4.392;2022-08-11T17:10:52;6.70;;;2.05;;
23517;SDS011;11935;50.878;4.392;2022-08-11T17:13:51;5.63;;;1.80;;
23517;SDS011;11935;50.878;4.392;2022-08-11T17:16:21;4.40;;;1.90;;
23517;SDS011;11935;50.878;4.392;2022-08-11T17:21:41;5.95;;;2.00;;
23517;SDS011;11935;50.878;4.392;2022-08-11T17:24:27;4.82;;;1.83;;
23517;SDS011;11935;50.878;4.392;2022-08-11T17:26:55;5.50;;;1.80;;
23517;SDS011;11935;50.878;4.392;2022-08-11T17:31:54;5.07;;;2.15;;
23517;SDS011;11935;50.878;4.392;2022-08-11T17:34:41;4.82;;;1.77;;
23517;SDS011;11935;50.878;4.392;2022-08-11T17:37:27;8.18;;;2.20;;
23517;SDS011;11935;50.878;4.392;2022-08-11T17:39:55;3.67;;;2.10;;
23517;SDS011;11935;50.878;4.392;2022-08-11T17:42:22;4.45;;;2.20;;
23517;SDS011;11935;50.878;4.392;2022-08-11T17:45:09;3.13;;;2.23;;
23517;SDS011;11935;50.878;4.392;2022-08-11T17:47:54;6.88;;;2.40;;
23517;SDS011;11935;50.878;4.392;2022-08-11T17:50:39;6.88;;;2.20;;
23517;SDS011;11935;50.878;4.392;2022-08-11T17:53:05;8.68;;;2.63;;
23517;SDS011;11935;50.878;4.392;2022-08-11T17:55:51;7.95;;;2.55;;
23517;SDS011;11935;50.878;4.392;2022-08-11T17:58:37;7.32;;;2.45;;
23517;SDS011;11935;50.878;4.392;2022-08-11T18:03:51;5.70;;;2.70;;
23517;SDS011;11935;50.878;4.392;2022-08-11T18:06:18;9.90;;;2.50;;
23517;SDS011;11935;50.878;4.392;2022-08-11T18:08:46;4.53;;;2.63;;
23517;SDS011;11935;50.878;4.392;2022-08-11T18:11:32;7.15;;;2.42;;
23517;SDS011;11935;50.878;4.392;2022-08-11T18:14:18;5.00;;;2.30;;
23517;SDS011;11935;50.878;4.392;2022-08-11T18:17:05;8.40;;;2.20;;
23517;SDS011;11935;50.878;4.392;2022-08-11T18:19:50;11.23;;;3.05;;
23517;SDS011;11935;50.878;4.392;2022-08-11T18:22:36;6.57;;;2.80;;
23517;SDS011;11935;50.878;4.392;2022-08-11T18:25:23;12.65;;;2.85;;
23517;SDS011;11935;50.878;4.392;2022-08-11T18:28:10;13.07;;;9.40;;
23517;SDS011;11935;50.878;4.392;2022-08-11T18:30:58;4.60;;;2.77;;
23517;SDS011;11935;50.878;4.392;2022-08-11T18:33:50;13.32;;;2.85;;
23517;SDS011;11935;50.878;4.392;2022-08-11T18:36:43;7.97;;;2.60;;
23517;SDS011;11935;50.878;4.392;2022-08-11T18:39:33;8.18;;;2.83;;
23517;SDS011;11935;50.878;4.392;2022-08-11T18:42:18;15.93;;;6.55;;
23517;SDS011;11935;50.878;4.392;2022-08-11T18:45:10;5.30;;;3.35;;
23517;SDS011;11935;50.878;4.392;2022-08-11T18:47:57;6.28;;;2.97;;
23517;SDS011;11935;50.878;4.392;2022-08-11T18:50:44;4.20;;;2.42;;
23517;SDS011;11935;50.878;4.392;2022-08-11T18:53:29;8.82;;;2.88;;
23517;SDS011;11935;50.878;4.392;2022-08-11T18:56:15;8.65;;;2.85;;
23517;SDS011;11935;50.878;4.392;2022-08-11T18:59:01;9.63;;;2.60;;
23517;SDS011;11935;50.878;4.392;2022-08-11T19:01:47;9.45;;;2.60;;
23517;SDS011;11935;50.878;4.392;2022-08-11T19:04:32;5.97;;;2.70;;
23517;SDS011;11935;50.878;4.392;2022-08-11T19:07:16;9.50;;;3.38;;
23517;SDS011;11935;50.878;4.392;2022-08-11T19:10:02;9.65;;;3.10;;
23517;SDS011;11935;50.878;4.392;2022-08-11T19:12:47;7.45;;;3.30;;
23517;SDS011;11935;50.878;4.392;2022-08-11T19:15:32;8.70;;;3.10;;